sensor_id;sensor_type;location;lat;lon;timestamp;P1;durP1;ratioP1;P2;durP2;ratioP2
67191;SDS011;54120;53.504;49.426;2023-04-12T00:02:14;9.07;;;3.83;;
67191;SDS011;54120;53.504;49.426;2023-04-12T00:04:41;5.95;;;3.53;;
67191;SDS011;54120;53.504;49.426;2023-04-12T00:07:07;6.72;;;3.70;;
67191;SDS011;54120;53.504;49.426;2023-04-12T00:09:35;8.38;;;3.80;;
67191;SDS011;54120;53.504;49.426;2023-04-12T00:12:02;7.78;;;3.97;;
67191;SDS011;54120;53.504;49.426;2023-04-12T00:14:29;5.93;;;3.60;;
67191;SDS011;54120;53.504;49.426;2023-04-12T00:16:55;9.18;;;4.18;;
67191;SDS011;54120;53.504;49.426;2023-04-12T00:19:21;6.55;;;3.80;;
67191;SDS011;54120;53.504;49.426;2023-04-12T00:21:52;6.57;;;3.67;;
67191;SDS011;54120;53.504;49.426;2023-04-12T00:24:18;6.55;;;3.58;;
67191;SDS011;54120;53.504;49.426;2023-04-12T00:26:44;6.20;;;3.60;;
67191;SDS011;54120;53.504;49.426;2023-04-12T00:29:10;7.35;;;3.70;;
67191;SDS011;54120;53.504;49.426;2023-04-12T00:31:36;5.28;;;3.88;;
67191;SDS011;54120;53.504;49.426;2023-04-12T00:34:03;6.22;;;4.15;;
67191;SDS011;54120;53.504;49.426;2023-04-12T00:36:29;5.75;;;4.00;;
67191;SDS011;54120;53.504;49.426;2023-04-12T00:38:55;8.70;;;3.75;;
67191;SDS011;54120;53.504;49.426;2023-04-12T00:41:21;4.72;;;3.50;;
67191;SDS011;54120;53.504;49.426;2023-04-12T00:43:48;5.07;;;3.30;;
67191;SDS011;54120;53.504;49.426;2023-04-12T00:46:15;5.35;;;3.72;;
67191;SDS011;54120;53.504;49.426;2023-04-12T00:48:44;8.02;;;3.80;;
67191;SDS011;54120;53.504;49.426;2023-04-12T00:51:13;6.72;;;3.80;;
67191;SDS011;54120;53.504;49.426;2023-04-12T00:53:42;5.15;;;3.35;;
67191;SDS011;54120;53.504;49.426;2023-04-12T00:56:08;9.95;;;3.83;;
67191;SDS011;54120;53.504;49.426;2023-04-12T00:58:36;4.32;;;3.25;;
67191;SDS011;54120;53.504;49.426;2023-04-12T01:01:02;6.88;;;3.58;;
67191;SDS011;54120;53.504;49.426;2023-04-12T01:03:28;7.15;;;3.90;;
67191;SDS011;54120;53.504;49.426;2023-04-12T01:06:00;8.02;;;4.25;;
67191;SDS011;54120;53.504;49.426;2023-04-12T01:11:28;6.68;;;3.63;;
67191;SDS011;54120;53.504;49.426;2023-04-12T01:16:42;7.05;;;3.70;;
67191;SDS011;54120;53.504;49.426;2023-04-12T01:19:22;7.82;;;4.28;;
67191;SDS011;54120;53.504;49.426;2023-04-12T01:28:04;5.95;;;3.60;;
67191;SDS011;54120;53.504;49.426;2023-04-12T01:30:33;6.95;;;3.55;;
67191;SDS011;54120;53.504;49.426;2023-04-12T01:33:02;5.50;;;3.88;;
67191;SDS011;54120;53.504;49.426;2023-04-12T01:35:31;7.25;;;4.03;;
67191;SDS011;54120;53.504;49.426;2023-04-12T01:37:58;10.35;;;3.70;;
67191;SDS011;54120;53.504;49.426;2023-04-12T01:40:42;6.57;;;3.67;;
67191;SDS011;54120;53.504;49.426;2023-04-12T01:43:10;7.38;;;4.07;;
67191;SDS011;54120;53.504;49.426;2023-04-12T01:45:38;7.15;;;3.65;;
67191;SDS011;54120;53.504;49.426;2023-04-12T01:48:08;4.43;;;3.50;;
67191;SDS011;54120;53.504;49.426;2023-04-12T01:53:19;6.45;;;3.47;;
67191;SDS011;54120;53.504;49.426;2023-04-12T01:55:57;5.32;;;3.13;;
67191;SDS011;54120;53.504;49.426;2023-04-12T01:58:29;5.10;;;3.33;;
67191;SDS011;54120;53.504;49.426;2023-04-12T02:00:57;5.03;;;3.53;;
67191;SDS011;54120;53.504;49.426;2023-04-12T02:03:26;6.15;;;3.28;;
67191;SDS011;54120;53.504;49.426;2023-04-12T02:05:55;7.40;;;3.65;;
67191;SDS011;54120;53.504;49.426;2023-04-12T02:08:23;5.93;;;3.50;;
67191;SDS011;54120;53.504;49.426;2023-04-12T02:10:50;4.97;;;3.42;;
67191;SDS011;54120;53.504;49.426;2023-04-12T02:13:17;6.80;;;3.78;;
67191;SDS011;54120;53.504;49.426;2023-04-12T02:15:43;4.63;;;3.78;;
67191;SDS011;54120;53.504;49.426;2023-04-12T02:18:10;6.70;;;3.72;;
67191;SDS011;54120;53.504;49.426;2023-04-12T02:20:38;8.63;;;4.00;;
67191;SDS011;54120;53.504;49.426;2023-04-12T02:23:05;8.07;;;3.72;;
67191;SDS011;54120;53.504;49.426;2023-04-12T02:25:32;8.32;;;3.70;;
67191;SDS011;54120;53.504;49.426;2023-04-12T02:28:00;11.77;;;4.32;;
67191;SDS011;54120;53.504;49.426;2023-04-12T02:30:26;16.20;;;5.55;;
67191;SDS011;54120;53.504;49.426;2023-04-12T02:32:53;6.50;;;3.60;;
67191;SDS011;54120;53.504;49.426;2023-04-12T02:35:20;8.00;;;3.60;;
67191;SDS011;54120;53.504;49.426;2023-04-12T02:37:47;8.82;;;3.67;;
67191;SDS011;54120;53.504;49.426;2023-04-12T02:40:13;5.47;;;3.45;;
67191;SDS011;54120;53.504;49.426;2023-04-12T02:42:40;7.50;;;4.10;;
67191;SDS011;54120;53.504;49.426;2023-04-12T02:45:10;10.57;;;4.00;;
67191;SDS011;54120;53.504;49.426;2023-04-12T02:47:36;7.85;;;4.10;;
67191;SDS011;54120;53.504;49.426;2023-04-12T02:50:03;10.82;;;4.07;;
67191;SDS011;54120;53.504;49.426;2023-04-12T02:52:29;6.72;;;3.92;;
67191;SDS011;54120;53.504;49.426;2023-04-12T02:54:58;10.20;;;4.15;;
67191;SDS011;54120;53.504;49.426;2023-04-12T02:57:25;7.10;;;3.83;;
67191;SDS011;54120;53.504;49.426;2023-04-12T02:59:52;8.48;;;3.80;;
67191;SDS011;54120;53.504;49.426;2023-04-12T03:02:19;13.57;;;4.28;;
67191;SDS011;54120;53.504;49.426;2023-04-12T03:04:46;8.38;;;4.07;;
67191;SDS011;54120;53.504;49.426;2023-04-12T03:07:15;9.15;;;3.60;;
67191;SDS011;54120;53.504;49.426;2023-04-12T03:09:48;9.60;;;3.55;;
67191;SDS011;54120;53.504;49.426;2023-04-12T03:12:15;18.67;;;5.57;;
67191;SDS011;54120;53.504;49.426;2023-04-12T03:14:41;19.92;;;4.40;;
67191;SDS011;54120;53.504;49.426;2023-04-12T03:17:08;6.90;;;3.53;;
67191;SDS011;54120;53.504;49.426;2023-04-12T03:19:34;12.93;;;4.32;;
67191;SDS011;54120;53.504;49.426;2023-04-12T03:22:01;6.63;;;3.70;;
67191;SDS011;54120;53.504;49.426;2023-04-12T03:24:30;6.32;;;3.45;;
67191;SDS011;54120;53.504;49.426;2023-04-12T03:27:02;7.53;;;4.10;;
67191;SDS011;54120;53.504;49.426;2023-04-12T03:29:29;11.77;;;3.67;;
67191;SDS011;54120;53.504;49.426;2023-04-12T03:31:56;11.93;;;4.30;;
67191;SDS011;54120;53.504;49.426;2023-04-12T03:34:24;32.90;;;5.22;;
67191;SDS011;54120;53.504;49.426;2023-04-12T03:36:53;23.95;;;5.10;;
67191;SDS011;54120;53.504;49.426;2023-04-12T03:39:20;20.02;;;4.57;;
67191;SDS011;54120;53.504;49.426;2023-04-12T03:41:46;16.02;;;4.03;;
67191;SDS011;54120;53.504;49.426;2023-04-12T03:44:12;7.45;;;3.33;;
67191;SDS011;54120;53.504;49.426;2023-04-12T03:46:38;16.35;;;3.63;;
67191;SDS011;54120;53.504;49.426;2023-04-12T03:49:05;16.55;;;4.50;;
67191;SDS011;54120;53.504;49.426;2023-04-12T03:51:31;12.20;;;3.63;;
67191;SDS011;54120;53.504;49.426;2023-04-12T03:53:58;60.42;;;7.18;;
67191;SDS011;54120;53.504;49.426;2023-04-12T03:56:24;29.80;;;5.22;;
67191;SDS011;54120;53.504;49.426;2023-04-12T03:58:50;69.82;;;8.05;;
67191;SDS011;54120;53.504;49.426;2023-04-12T04:01:16;65.43;;;7.93;;
67191;SDS011;54120;53.504;49.426;2023-04-12T04:03:46;56.55;;;7.57;;
67191;SDS011;54120;53.504;49.426;2023-04-12T04:06:12;63.80;;;8.38;;
67191;SDS011;54120;53.504;49.426;2023-04-12T04:08:38;51.75;;;7.38;;
67191;SDS011;54120;53.504;49.426;2023-04-12T04:11:06;41.45;;;6.95;;
67191;SDS011;54120;53.504;49.426;2023-04-12T04:13:33;34.78;;;5.78;;
67191;SDS011;54120;53.504;49.426;2023-04-12T04:16:00;19.55;;;3.83;;
67191;SDS011;54120;53.504;49.426;2023-04-12T04:18:29;18.67;;;4.07;;
67191;SDS011;54120;53.504;49.426;2023-04-12T04:20:55;12.10;;;3.08;;
67191;SDS011;54120;53.504;49.426;2023-04-12T04:23:21;19.10;;;2.90;;
67191;SDS011;54120;53.504;49.426;2023-04-12T04:25:47;16.15;;;2.95;;
67191;SDS011;54120;53.504;49.426;2023-04-12T04:28:13;14.13;;;2.92;;
67191;SDS011;54120;53.504;49.426;2023-04-12T04:30:41;13.20;;;2.88;;
67191;SDS011;54120;53.504;49.426;2023-04-12T04:33:13;8.85;;;2.50;;
67191;SDS011;54120;53.504;49.426;2023-04-12T04:35:43;9.60;;;2.50;;
67191;SDS011;54120;53.504;49.426;2023-04-12T04:38:09;5.10;;;2.70;;
67191;SDS011;54120;53.504;49.426;2023-04-12T04:40:35;6.97;;;2.35;;
67191;SDS011;54120;53.504;49.426;2023-04-12T04:43:02;9.15;;;2.33;;
67191;SDS011;54120;53.504;49.426;2023-04-12T04:45:29;7.93;;;2.42;;
67191;SDS011;54120;53.504;49.426;2023-04-12T04:47:55;6.68;;;2.08;;
67191;SDS011;54120;53.504;49.426;2023-04-12T04:50:22;3.30;;;1.80;;
67191;SDS011;54120;53.504;49.426;2023-04-12T04:52:49;4.28;;;2.50;;
67191;SDS011;54120;53.504;49.426;2023-04-12T04:55:16;4.65;;;2.10;;
67191;SDS011;54120;53.504;49.426;2023-04-12T04:57:43;6.40;;;2.45;;
67191;SDS011;54120;53.504;49.426;2023-04-12T05:00:10;9.30;;;2.50;;
67191;SDS011;54120;53.504;49.426;2023-04-12T05:02:38;10.45;;;2.85;;
67191;SDS011;54120;53.504;49.426;2023-04-12T05:05:08;14.23;;;2.33;;
67191;SDS011;54120;53.504;49.426;2023-04-12T05:07:37;5.35;;;2.20;;
67191;SDS011;54120;53.504;49.426;2023-04-12T05:10:03;4.40;;;1.92;;
67191;SDS011;54120;53.504;49.426;2023-04-12T05:12:29;5.00;;;2.20;;
67191;SDS011;54120;53.504;49.426;2023-04-12T05:14:56;5.50;;;2.25;;
67191;SDS011;54120;53.504;49.426;2023-04-12T05:17:22;5.05;;;1.90;;
67191;SDS011;54120;53.504;49.426;2023-04-12T05:19:48;5.65;;;1.98;;
67191;SDS011;54120;53.504;49.426;2023-04-12T05:22:14;4.50;;;1.90;;
67191;SDS011;54120;53.504;49.426;2023-04-12T05:24:45;5.47;;;2.17;;
67191;SDS011;54120;53.504;49.426;2023-04-12T05:27:12;4.53;;;2.20;;
67191;SDS011;54120;53.504;49.426;2023-04-12T05:29:41;21.67;;;3.00;;
67191;SDS011;54120;53.504;49.426;2023-04-12T05:32:08;10.15;;;2.53;;
67191;SDS011;54120;53.504;49.426;2023-04-12T05:34:34;12.63;;;2.35;;
67191;SDS011;54120;53.504;49.426;2023-04-12T05:37:02;6.07;;;2.00;;
67191;SDS011;54120;53.504;49.426;2023-04-12T05:39:29;4.72;;;2.08;;
67191;SDS011;54120;53.504;49.426;2023-04-12T05:41:56;6.38;;;1.92;;
67191;SDS011;54120;53.504;49.426;2023-04-12T05:44:22;5.90;;;2.10;;
67191;SDS011;54120;53.504;49.426;2023-04-12T05:46:48;6.78;;;2.60;;
67191;SDS011;54120;53.504;49.426;2023-04-12T05:49:14;21.17;;;2.85;;
67191;SDS011;54120;53.504;49.426;2023-04-12T05:51:40;3.42;;;2.17;;
67191;SDS011;54120;53.504;49.426;2023-04-12T05:54:06;2.50;;;1.80;;
67191;SDS011;54120;53.504;49.426;2023-04-12T05:56:32;5.82;;;2.20;;
67191;SDS011;54120;53.504;49.426;2023-04-12T05:58:58;7.72;;;2.95;;
67191;SDS011;54120;53.504;49.426;2023-04-12T06:01:26;4.68;;;2.00;;
67191;SDS011;54120;53.504;49.426;2023-04-12T06:03:59;11.25;;;2.10;;
67191;SDS011;54120;53.504;49.426;2023-04-12T06:06:30;5.25;;;2.00;;
67191;SDS011;54120;53.504;49.426;2023-04-12T06:08:56;10.80;;;2.13;;
67191;SDS011;54120;53.504;49.426;2023-04-12T06:11:25;6.03;;;1.92;;
67191;SDS011;54120;53.504;49.426;2023-04-12T06:13:52;7.10;;;2.22;;
67191;SDS011;54120;53.504;49.426;2023-04-12T06:16:18;5.28;;;1.80;;
67191;SDS011;54120;53.504;49.426;2023-04-12T06:18:45;4.75;;;1.90;;
67191;SDS011;54120;53.504;49.426;2023-04-12T06:21:11;1.65;;;1.52;;
67191;SDS011;54120;53.504;49.426;2023-04-12T06:23:37;5.15;;;2.00;;
67191;SDS011;54120;53.504;49.426;2023-04-12T06:26:04;7.10;;;2.33;;
67191;SDS011;54120;53.504;49.426;2023-04-12T06:28:30;19.58;;;1.92;;
67191;SDS011;54120;53.504;49.426;2023-04-12T06:30:56;3.58;;;1.70;;
67191;SDS011;54120;53.504;49.426;2023-04-12T06:33:22;9.48;;;2.05;;
67191;SDS011;54120;53.504;49.426;2023-04-12T06:35:49;5.60;;;1.90;;
67191;SDS011;54120;53.504;49.426;2023-04-12T06:38:16;4.47;;;1.83;;
67191;SDS011;54120;53.504;49.426;2023-04-12T06:40:43;3.47;;;1.92;;
67191;SDS011;54120;53.504;49.426;2023-04-12T06:43:09;5.38;;;1.90;;
67191;SDS011;54120;53.504;49.426;2023-04-12T06:45:35;14.57;;;2.50;;
67191;SDS011;54120;53.504;49.426;2023-04-12T06:48:01;18.90;;;2.42;;
67191;SDS011;54120;53.504;49.426;2023-04-12T06:50:27;4.05;;;1.70;;
67191;SDS011;54120;53.504;49.426;2023-04-12T06:52:53;3.22;;;2.00;;
67191;SDS011;54120;53.504;49.426;2023-04-12T06:55:20;4.95;;;1.80;;
67191;SDS011;54120;53.504;49.426;2023-04-12T06:57:46;5.35;;;1.80;;
67191;SDS011;54120;53.504;49.426;2023-04-12T07:00:12;10.07;;;1.95;;
67191;SDS011;54120;53.504;49.426;2023-04-12T07:02:38;4.70;;;1.83;;
67191;SDS011;54120;53.504;49.426;2023-04-12T07:05:05;3.13;;;1.95;;
67191;SDS011;54120;53.504;49.426;2023-04-12T07:07:31;5.53;;;2.10;;
67191;SDS011;54120;53.504;49.426;2023-04-12T07:09:58;6.65;;;2.38;;
67191;SDS011;54120;53.504;49.426;2023-04-12T07:12:25;6.32;;;2.08;;
67191;SDS011;54120;53.504;49.426;2023-04-12T07:14:51;21.23;;;2.70;;
67191;SDS011;54120;53.504;49.426;2023-04-12T07:17:17;16.52;;;2.47;;
67191;SDS011;54120;53.504;49.426;2023-04-12T07:19:43;5.75;;;1.90;;
67191;SDS011;54120;53.504;49.426;2023-04-12T07:22:09;6.45;;;2.10;;
67191;SDS011;54120;53.504;49.426;2023-04-12T07:24:35;6.88;;;1.95;;
67191;SDS011;54120;53.504;49.426;2023-04-12T07:27:01;6.03;;;2.55;;
67191;SDS011;54120;53.504;49.426;2023-04-12T07:29:28;16.80;;;2.80;;
67191;SDS011;54120;53.504;49.426;2023-04-12T07:31:55;3.90;;;2.28;;
67191;SDS011;54120;53.504;49.426;2023-04-12T07:34:21;8.30;;;2.50;;
67191;SDS011;54120;53.504;49.426;2023-04-12T07:36:48;4.55;;;2.10;;
67191;SDS011;54120;53.504;49.426;2023-04-12T07:39:14;8.85;;;2.13;;
67191;SDS011;54120;53.504;49.426;2023-04-12T07:41:41;7.50;;;2.47;;
67191;SDS011;54120;53.504;49.426;2023-04-12T07:44:10;4.32;;;2.10;;
67191;SDS011;54120;53.504;49.426;2023-04-12T07:46:39;6.80;;;2.22;;
67191;SDS011;54120;53.504;49.426;2023-04-12T07:49:06;24.27;;;2.95;;
67191;SDS011;54120;53.504;49.426;2023-04-12T07:51:35;10.73;;;2.33;;
67191;SDS011;54120;53.504;49.426;2023-04-12T07:54:02;4.53;;;2.33;;
67191;SDS011;54120;53.504;49.426;2023-04-12T07:56:29;3.60;;;2.28;;
67191;SDS011;54120;53.504;49.426;2023-04-12T07:58:55;7.28;;;2.67;;
67191;SDS011;54120;53.504;49.426;2023-04-12T08:01:21;5.50;;;2.80;;
67191;SDS011;54120;53.504;49.426;2023-04-12T08:03:47;9.25;;;2.65;;
67191;SDS011;54120;53.504;49.426;2023-04-12T08:06:13;5.22;;;2.60;;
67191;SDS011;54120;53.504;49.426;2023-04-12T08:08:39;9.80;;;4.78;;
67191;SDS011;54120;53.504;49.426;2023-04-12T08:11:05;6.30;;;4.25;;
67191;SDS011;54120;53.504;49.426;2023-04-12T08:13:32;5.82;;;2.70;;
67191;SDS011;54120;53.504;49.426;2023-04-12T08:15:59;4.25;;;2.47;;
67191;SDS011;54120;53.504;49.426;2023-04-12T08:18:25;5.82;;;3.63;;
67191;SDS011;54120;53.504;49.426;2023-04-12T08:20:52;53.80;;;5.20;;
67191;SDS011;54120;53.504;49.426;2023-04-12T08:23:18;4.07;;;2.70;;
67191;SDS011;54120;53.504;49.426;2023-04-12T08:25:45;4.85;;;2.28;;
67191;SDS011;54120;53.504;49.426;2023-04-12T08:28:11;5.22;;;3.42;;
67191;SDS011;54120;53.504;49.426;2023-04-12T08:30:37;8.02;;;3.45;;
67191;SDS011;54120;53.504;49.426;2023-04-12T08:33:03;4.15;;;2.97;;
67191;SDS011;54120;53.504;49.426;2023-04-12T08:35:29;5.95;;;2.70;;
67191;SDS011;54120;53.504;49.426;2023-04-12T08:37:56;5.35;;;2.90;;
67191;SDS011;54120;53.504;49.426;2023-04-12T08:40:22;5.15;;;3.55;;
67191;SDS011;54120;53.504;49.426;2023-04-12T08:42:49;17.27;;;13.70;;
67191;SDS011;54120;53.504;49.426;2023-04-12T08:45:18;4.28;;;2.80;;
67191;SDS011;54120;53.504;49.426;2023-04-12T08:47:48;2.70;;;2.50;;
67191;SDS011;54120;53.504;49.426;2023-04-12T08:50:14;3.88;;;2.50;;
67191;SDS011;54120;53.504;49.426;2023-04-12T08:52:41;6.65;;;2.53;;
67191;SDS011;54120;53.504;49.426;2023-04-12T08:55:10;6.68;;;3.53;;
67191;SDS011;54120;53.504;49.426;2023-04-12T08:57:38;5.82;;;2.83;;
67191;SDS011;54120;53.504;49.426;2023-04-12T09:00:06;5.80;;;2.72;;
67191;SDS011;54120;53.504;49.426;2023-04-12T09:02:37;8.55;;;3.50;;
67191;SDS011;54120;53.504;49.426;2023-04-12T09:05:04;4.90;;;3.28;;
67191;SDS011;54120;53.504;49.426;2023-04-12T09:07:30;4.82;;;3.00;;
67191;SDS011;54120;53.504;49.426;2023-04-12T09:09:57;5.90;;;2.63;;
67191;SDS011;54120;53.504;49.426;2023-04-12T09:12:24;6.57;;;2.95;;
67191;SDS011;54120;53.504;49.426;2023-04-12T09:15:06;5.03;;;3.40;;
67191;SDS011;54120;53.504;49.426;2023-04-12T09:17:38;7.63;;;3.20;;
67191;SDS011;54120;53.504;49.426;2023-04-12T09:20:26;4.55;;;2.70;;
67191;SDS011;54120;53.504;49.426;2023-04-12T09:22:54;6.85;;;2.90;;
67191;SDS011;54120;53.504;49.426;2023-04-12T09:28:25;7.65;;;3.00;;
67191;SDS011;54120;53.504;49.426;2023-04-12T09:30:53;4.80;;;3.00;;
67191;SDS011;54120;53.504;49.426;2023-04-12T09:33:21;5.60;;;3.30;;
67191;SDS011;54120;53.504;49.426;2023-04-12T09:36:01;7.07;;;3.08;;
67191;SDS011;54120;53.504;49.426;2023-04-12T09:38:29;10.27;;;3.53;;
67191;SDS011;54120;53.504;49.426;2023-04-12T09:41:05;5.85;;;3.35;;
67191;SDS011;54120;53.504;49.426;2023-04-12T09:43:40;5.15;;;3.30;;
67191;SDS011;54120;53.504;49.426;2023-04-12T09:46:08;5.80;;;3.03;;
67191;SDS011;54120;53.504;49.426;2023-04-12T09:48:39;17.20;;;4.20;;
67191;SDS011;54120;53.504;49.426;2023-04-12T09:51:06;6.72;;;3.30;;
67191;SDS011;54120;53.504;49.426;2023-04-12T09:53:33;25.45;;;5.13;;
67191;SDS011;54120;53.504;49.426;2023-04-12T09:56:03;13.98;;;3.60;;
67191;SDS011;54120;53.504;49.426;2023-04-12T09:58:32;4.93;;;3.60;;
67191;SDS011;54120;53.504;49.426;2023-04-12T10:01:01;5.53;;;3.42;;
67191;SDS011;54120;53.504;49.426;2023-04-12T10:03:28;5.68;;;3.80;;
67191;SDS011;54120;53.504;49.426;2023-04-12T10:05:55;6.55;;;3.80;;
67191;SDS011;54120;53.504;49.426;2023-04-12T10:08:21;4.72;;;3.13;;
67191;SDS011;54120;53.504;49.426;2023-04-12T10:10:50;6.05;;;3.38;;
67191;SDS011;54120;53.504;49.426;2023-04-12T10:13:18;48.97;;;35.50;;
67191;SDS011;54120;53.504;49.426;2023-04-12T10:15:44;7.65;;;4.50;;
67191;SDS011;54120;53.504;49.426;2023-04-12T10:18:13;4.20;;;3.10;;
67191;SDS011;54120;53.504;49.426;2023-04-12T10:20:42;11.65;;;6.72;;
67191;SDS011;54120;53.504;49.426;2023-04-12T10:23:10;5.25;;;3.10;;
67191;SDS011;54120;53.504;49.426;2023-04-12T10:25:37;3.63;;;3.33;;
67191;SDS011;54120;53.504;49.426;2023-04-12T10:28:13;3.95;;;3.10;;
67191;SDS011;54120;53.504;49.426;2023-04-12T10:30:44;3.65;;;2.92;;
67191;SDS011;54120;53.504;49.426;2023-04-12T10:33:12;4.45;;;3.05;;
67191;SDS011;54120;53.504;49.426;2023-04-12T10:35:51;18.25;;;4.50;;
67191;SDS011;54120;53.504;49.426;2023-04-12T10:38:19;14.55;;;3.90;;
67191;SDS011;54120;53.504;49.426;2023-04-12T10:43:52;7.93;;;3.53;;
67191;SDS011;54120;53.504;49.426;2023-04-12T10:46:54;4.40;;;3.05;;
67191;SDS011;54120;53.504;49.426;2023-04-12T10:49:20;5.55;;;3.00;;
67191;SDS011;54120;53.504;49.426;2023-04-12T10:54:35;7.18;;;3.15;;
67191;SDS011;54120;53.504;49.426;2023-04-12T10:57:02;4.85;;;3.10;;
67191;SDS011;54120;53.504;49.426;2023-04-12T11:02:17;4.75;;;3.17;;
67191;SDS011;54120;53.504;49.426;2023-04-12T11:05:02;4.55;;;2.85;;
67191;SDS011;54120;53.504;49.426;2023-04-12T11:07:42;4.45;;;3.08;;
67191;SDS011;54120;53.504;49.426;2023-04-12T11:10:15;6.60;;;4.15;;
67191;SDS011;54120;53.504;49.426;2023-04-12T11:13:04;3.95;;;3.22;;
67191;SDS011;54120;53.504;49.426;2023-04-12T11:15:33;18.63;;;5.88;;
67191;SDS011;54120;53.504;49.426;2023-04-12T11:17:59;3.53;;;2.97;;
67191;SDS011;54120;53.504;49.426;2023-04-12T11:20:25;5.00;;;3.13;;
67191;SDS011;54120;53.504;49.426;2023-04-12T11:22:52;6.50;;;3.47;;
67191;SDS011;54120;53.504;49.426;2023-04-12T11:25:19;6.72;;;3.67;;
67191;SDS011;54120;53.504;49.426;2023-04-12T11:27:48;6.85;;;3.25;;
67191;SDS011;54120;53.504;49.426;2023-04-12T11:30:15;7.80;;;3.45;;
67191;SDS011;54120;53.504;49.426;2023-04-12T11:32:43;4.47;;;3.20;;
67191;SDS011;54120;53.504;49.426;2023-04-12T11:35:10;3.83;;;3.13;;
67191;SDS011;54120;53.504;49.426;2023-04-12T11:37:36;4.07;;;3.15;;
67191;SDS011;54120;53.504;49.426;2023-04-12T11:40:03;4.95;;;3.10;;
67191;SDS011;54120;53.504;49.426;2023-04-12T11:42:30;3.75;;;3.35;;
67191;SDS011;54120;53.504;49.426;2023-04-12T11:44:58;3.28;;;2.95;;
67191;SDS011;54120;53.504;49.426;2023-04-12T11:47:24;5.75;;;2.92;;
67191;SDS011;54120;53.504;49.426;2023-04-12T11:49:52;4.22;;;3.10;;
67191;SDS011;54120;53.504;49.426;2023-04-12T11:52:20;4.68;;;3.03;;
67191;SDS011;54120;53.504;49.426;2023-04-12T11:54:51;4.75;;;2.95;;
67191;SDS011;54120;53.504;49.426;2023-04-12T11:57:21;9.35;;;3.30;;
67191;SDS011;54120;53.504;49.426;2023-04-12T11:59:47;5.10;;;3.30;;
67191;SDS011;54120;53.504;49.426;2023-04-12T12:02:15;14.55;;;4.05;;
67191;SDS011;54120;53.504;49.426;2023-04-12T12:04:45;3.80;;;2.92;;
67191;SDS011;54120;53.504;49.426;2023-04-12T12:07:13;4.53;;;3.10;;
67191;SDS011;54120;53.504;49.426;2023-04-12T12:09:41;7.32;;;3.42;;
67191;SDS011;54120;53.504;49.426;2023-04-12T12:12:12;7.93;;;3.25;;
67191;SDS011;54120;53.504;49.426;2023-04-12T12:14:38;14.80;;;3.50;;
67191;SDS011;54120;53.504;49.426;2023-04-12T12:17:08;6.80;;;3.00;;
67191;SDS011;54120;53.504;49.426;2023-04-12T12:19:40;19.63;;;5.72;;
67191;SDS011;54120;53.504;49.426;2023-04-12T12:22:18;4.45;;;3.20;;
67191;SDS011;54120;53.504;49.426;2023-04-12T12:27:36;6.35;;;3.03;;
67191;SDS011;54120;53.504;49.426;2023-04-12T12:30:05;4.70;;;3.78;;
67191;SDS011;54120;53.504;49.426;2023-04-12T12:32:33;6.93;;;3.13;;
67191;SDS011;54120;53.504;49.426;2023-04-12T12:35:02;7.43;;;3.63;;
67191;SDS011;54120;53.504;49.426;2023-04-12T12:37:33;13.13;;;3.50;;
67191;SDS011;54120;53.504;49.426;2023-04-12T12:40:00;6.78;;;3.30;;
67191;SDS011;54120;53.504;49.426;2023-04-12T12:42:35;8.48;;;3.50;;
67191;SDS011;54120;53.504;49.426;2023-04-12T12:45:02;4.78;;;3.30;;
67191;SDS011;54120;53.504;49.426;2023-04-12T12:47:29;12.38;;;3.28;;
67191;SDS011;54120;53.504;49.426;2023-04-12T12:49:56;5.38;;;3.30;;
67191;SDS011;54120;53.504;49.426;2023-04-12T12:52:22;5.88;;;3.40;;
67191;SDS011;54120;53.504;49.426;2023-04-12T12:54:49;6.57;;;3.30;;
67191;SDS011;54120;53.504;49.426;2023-04-12T12:57:15;6.25;;;3.40;;
67191;SDS011;54120;53.504;49.426;2023-04-12T12:59:41;9.27;;;5.00;;
67191;SDS011;54120;53.504;49.426;2023-04-12T13:02:07;3.65;;;3.13;;
67191;SDS011;54120;53.504;49.426;2023-04-12T13:04:33;3.55;;;3.15;;
67191;SDS011;54120;53.504;49.426;2023-04-12T13:07:00;7.63;;;3.38;;
67191;SDS011;54120;53.504;49.426;2023-04-12T13:09:26;9.70;;;3.55;;
67191;SDS011;54120;53.504;49.426;2023-04-12T13:11:52;4.95;;;3.40;;
67191;SDS011;54120;53.504;49.426;2023-04-12T13:14:18;4.47;;;3.25;;
67191;SDS011;54120;53.504;49.426;2023-04-12T13:16:44;6.40;;;3.30;;
67191;SDS011;54120;53.504;49.426;2023-04-12T13:19:12;9.82;;;3.38;;
67191;SDS011;54120;53.504;49.426;2023-04-12T13:21:40;5.93;;;3.15;;
67191;SDS011;54120;53.504;49.426;2023-04-12T13:24:06;11.00;;;3.28;;
67191;SDS011;54120;53.504;49.426;2023-04-12T13:26:33;6.50;;;3.00;;
67191;SDS011;54120;53.504;49.426;2023-04-12T13:28:59;8.70;;;5.50;;
67191;SDS011;54120;53.504;49.426;2023-04-12T13:31:26;10.23;;;4.32;;
67191;SDS011;54120;53.504;49.426;2023-04-12T13:33:53;19.02;;;6.72;;
67191;SDS011;54120;53.504;49.426;2023-04-12T13:36:19;5.15;;;3.42;;
67191;SDS011;54120;53.504;49.426;2023-04-12T13:38:45;7.43;;;3.22;;
67191;SDS011;54120;53.504;49.426;2023-04-12T13:41:12;6.80;;;3.10;;
67191;SDS011;54120;53.504;49.426;2023-04-12T13:43:39;7.85;;;3.22;;
67191;SDS011;54120;53.504;49.426;2023-04-12T13:46:05;8.98;;;4.05;;
67191;SDS011;54120;53.504;49.426;2023-04-12T13:48:31;9.20;;;3.38;;
67191;SDS011;54120;53.504;49.426;2023-04-12T13:50:57;13.30;;;4.53;;
67191;SDS011;54120;53.504;49.426;2023-04-12T13:53:24;8.00;;;3.80;;
67191;SDS011;54120;53.504;49.426;2023-04-12T13:55:50;12.20;;;3.58;;
67191;SDS011;54120;53.504;49.426;2023-04-12T13:58:16;17.70;;;5.13;;
67191;SDS011;54120;53.504;49.426;2023-04-12T14:00:44;11.70;;;4.35;;
67191;SDS011;54120;53.504;49.426;2023-04-12T14:03:10;7.05;;;3.30;;
67191;SDS011;54120;53.504;49.426;2023-04-12T14:05:36;10.63;;;3.30;;
67191;SDS011;54120;53.504;49.426;2023-04-12T14:08:02;6.70;;;3.75;;
67191;SDS011;54120;53.504;49.426;2023-04-12T14:10:28;11.30;;;3.45;;
67191;SDS011;54120;53.504;49.426;2023-04-12T14:12:57;7.20;;;3.50;;
67191;SDS011;54120;53.504;49.426;2023-04-12T14:15:23;9.43;;;3.33;;
67191;SDS011;54120;53.504;49.426;2023-04-12T14:17:50;6.57;;;3.40;;
67191;SDS011;54120;53.504;49.426;2023-04-12T14:20:16;8.93;;;3.28;;
67191;SDS011;54120;53.504;49.426;2023-04-12T14:22:42;11.48;;;3.30;;
67191;SDS011;54120;53.504;49.426;2023-04-12T14:25:08;13.40;;;3.38;;
67191;SDS011;54120;53.504;49.426;2023-04-12T14:27:36;7.47;;;3.45;;
67191;SDS011;54120;53.504;49.426;2023-04-12T14:30:03;8.35;;;3.38;;
67191;SDS011;54120;53.504;49.426;2023-04-12T14:32:31;10.75;;;3.50;;
67191;SDS011;54120;53.504;49.426;2023-04-12T14:34:57;12.18;;;4.68;;
67191;SDS011;54120;53.504;49.426;2023-04-12T14:37:23;10.35;;;4.70;;
67191;SDS011;54120;53.504;49.426;2023-04-12T14:39:51;15.43;;;8.55;;
67191;SDS011;54120;53.504;49.426;2023-04-12T14:42:18;7.20;;;4.35;;
67191;SDS011;54120;53.504;49.426;2023-04-12T14:44:45;10.13;;;3.80;;
67191;SDS011;54120;53.504;49.426;2023-04-12T14:47:11;15.23;;;3.72;;
67191;SDS011;54120;53.504;49.426;2023-04-12T14:49:37;5.95;;;2.92;;
67191;SDS011;54120;53.504;49.426;2023-04-12T14:52:03;9.80;;;3.78;;
67191;SDS011;54120;53.504;49.426;2023-04-12T14:54:31;9.57;;;5.00;;
67191;SDS011;54120;53.504;49.426;2023-04-12T14:56:57;9.82;;;3.47;;
67191;SDS011;54120;53.504;49.426;2023-04-12T14:59:24;4.25;;;3.55;;
67191;SDS011;54120;53.504;49.426;2023-04-12T15:01:51;12.77;;;4.10;;
67191;SDS011;54120;53.504;49.426;2023-04-12T15:04:18;13.73;;;3.40;;